• Join FlightAware (Why Join?)
  • Login
  • US Flag 
Rudolph Flight #1: Arrived! 
09:42AM EST


 

Airport Tracker/Info


-or-


 

Live Flight TrackerFlight Track Log ✈ SWA2009 ✈ 06-Apr-2013 ✈ KBWI - KMKE

Flight Track Log - Related Links

Times and Time Zones

All times are in EDT time to prevent confusion due to time zone crossing. See the SWA2009 flight status page for this flight to view local times or setup timezone preferences in your user account.

Time Position Orientation Groundspeed Altitude Reporting Facility
EDT Latitude Longitude Course Direction KTS MPH feet Rate Location/Type
01:15PM 39.1333 -76.6667 311° West 196 226 2,400  Level Potomac TRACON
01:16PM 39.1667 -76.7167 311° West 241 277 4,800 2,520 Climbing Potomac TRACON
01:17PM 39.1833 -76.8167 282° West 270 311 7,500 3,300 Climbing Potomac TRACON
01:18PM 39.2167 -76.9167 293° West 265 305 11,900 3,420 Climbing Potomac TRACON
01:19PM 39.2167 -77.0167 270° West 290 334 14,700 2,520 Climbing Potomac TRACON
01:20PM 39.2167 -77.1333 270° West 342 394 17,000 1,140 Climbing Potomac TRACON
01:21PM 39.2500 -77.2500 290° West 341 392 17,000  Level Potomac TRACON
01:22PM 39.3000 -77.3500 303° West 336 387 17,000  Level Potomac TRACON
01:23PM 39.3500 -77.4500 303° West 337 388 17,000  Level Potomac TRACON
01:24PM 39.3975 -77.5600 299° West 365 420 17,100 1,080 Climbing Washington Center
01:25PM 39.4478 -77.6664 301° West 360 414 19,400 2,460 Climbing Washington Center
01:26PM 39.4981 -77.7781 300° West 360 414 22,100 2,520 Climbing Washington Center
01:27PM 39.5458 -77.8953 298° West 360 414 24,500 1,920 Climbing Washington Center
01:30PM 39.6444 -78.2214 292° West 395 455 28,900 1,860 Climbing Cleveland Center
01:31PM 39.6850 -78.3631 290° West 415 478 31,000 2,100 Climbing Cleveland Center
01:32PM 39.7269 -78.4994 292° West 415 478 33,200 2,160 Climbing Cleveland Center
01:33PM 39.7878 -78.6297 301° West 407 468 35,400 1,380 Climbing Cleveland Center
01:34PM 39.8461 -78.7525 302° West 391 450 36,000 300 Climbing Cleveland Center
01:35PM 39.9042 -78.8728 302° West 391 450 36,000  Level Cleveland Center
01:36PM 39.9578 -78.9797 303° West 398 458 36,000  Level Cleveland Center
01:37PM 40.0136 -79.1003 301° West 398 458 36,000  Level Cleveland Center
01:38PM 40.0697 -79.2319 299° West 392 451 36,000  Level Cleveland Center
01:39PM 40.1231 -79.3397 303° West 392 451 36,000 300 Level Cleveland Center
01:40PM 40.1783 -79.4608 301° West 392 451 36,600 960 Climbing Cleveland Center
01:41PM 40.2336 -79.5794 301° West 392 451 38,000 660 Climbing Cleveland Center
01:42PM 40.2869 -79.7014 300° West 392 451 38,000  Level Cleveland Center
01:43PM 40.3419 -79.8203 301° West 392 451 38,000  Level Cleveland Center
01:44PM 40.3947 -79.9342 301° West 392 451 38,000  Level Cleveland Center
01:45PM 40.4475 -80.0619 299° West 392 451 38,000  Level Cleveland Center
01:46PM 40.5000 -80.1789 301° West 387 445 38,000  Level Cleveland Center
01:47PM 40.5506 -80.2961 300° West 375 432 38,000  Level Cleveland Center
01:48PM 40.6028 -80.4136 300° West 375 432 38,000  Level Cleveland Center
01:49PM 40.6614 -80.5419 301° West 375 432 38,000  Level Cleveland Center
01:50PM 40.7133 -80.6597 300° West 375 432 38,000  Level Cleveland Center
01:51PM 40.7819 -80.7669 310° West 375 432 38,000  Level Cleveland Center
01:52PM 40.8506 -80.8769 310° West 380 437 38,000  Level Cleveland Center
01:53PM 40.9150 -80.9869 308° West 380 437 38,000  Level Cleveland Center
01:54PM 40.9792 -81.1003 307° West 385 443 38,000  Level Cleveland Center
01:55PM 41.0472 -81.2108 309° West 386 444 38,000  Level Cleveland Center
01:56PM 41.1133 -81.3217 308° West 386 444 38,000  Level Cleveland Center
01:57PM 41.1833 -81.4328 310° West 391 450 38,000  Level Cleveland Center
01:58PM 41.2514 -81.5469 308° West 396 456 38,000  Level Cleveland Center
01:59PM 41.3192 -81.6586 309° West 396 456 38,000  Level Cleveland Center
02:00PM 41.3847 -81.7731 307° West 396 456 38,000  Level Cleveland Center
02:01PM 41.4500 -81.8906 307° West 391 450 38,000  Level Cleveland Center
02:02PM 41.5156 -82.0031 308° West 391 450 38,000  Level Cleveland Center
02:03PM 41.5828 -82.1156 309° West 391 450 38,000  Level Cleveland Center
02:04PM 41.6458 -82.2281 307° West 391 450 38,000  Level Cleveland Center
02:05PM 41.7028 -82.3269 308° West 391 450 38,000  Level Cleveland Center
02:06PM 41.7697 -82.4400 308° West 391 450 38,000  Level Cleveland Center
02:07PM 41.8367 -82.5536 308° West 391 450 38,000  Level Cleveland Center
02:08PM 41.9014 -82.6672 307° West 391 450 38,000  Level Cleveland Center
02:09PM 41.9658 -82.7839 307° West 386 444 38,000  Level Cleveland Center
02:10PM 42.0303 -82.8978 307° West 386 444 38,000  Level Cleveland Center
02:11PM 42.0969 -83.0122 308° West 391 450 38,000  Level Cleveland Center
02:12PM 42.1631 -83.1294 307° West 391 450 38,000  Level Cleveland Center
02:13PM 42.2353 -83.2586 307° West 391 450 38,000  Level Cleveland Center
02:14PM 42.2969 -83.3736 306° West 391 450 38,000  Level Cleveland Center
02:15PM 42.3650 -83.4917 308° West 391 450 38,000  Level Cleveland Center
02:16PM 42.4250 -83.5931 309° West 389 448 38,000  Level Cleveland Center
02:17PM 42.4867 -83.7058 307° West 389 448 38,000  Level Cleveland Center
02:18PM 42.5500 -83.8217 307° West 389 448 38,000  Level Cleveland Center
02:19PM 42.6214 -83.9525 307° West 389 448 38,000  Level Cleveland Center
02:20PM 42.6847 -84.0689 307° West 389 448 38,000  Level Cleveland Center
02:21PM 42.7361 -84.1622 307° West 389 448 38,000  Level Cleveland Center
02:22PM 42.8128 -84.3025 307° West 389 448 38,000  Level Cleveland Center
02:24PM 42.9478 -84.5486 307° West 388 447 38,000  Level Chicago Center
02:25PM 43.0122 -84.6689 306° West 394 453 38,000  Level Chicago Center
02:26PM 43.0756 -84.7892 306° West 391 450 38,000  Level Chicago Center
02:27PM 43.1369 -84.9128 304° West 393 452 38,000  Level Chicago Center
02:28PM 43.1458 -85.0564 275° West 384 442 38,000 -60 Level Chicago Center
02:29PM 43.1503 -85.1997 272° West 379 436 37,900 -600 Descending Chicago Center
02:30PM 43.1544 -85.3447 272° West 382 440 36,800 -1,920 Descending Chicago Center
02:31PM 43.1586 -85.5172 272° West 381 438 34,000 -2,400 Descending Chicago Center
02:32PM 43.1614 -85.6561 272° West 371 427 32,000 -1,920 Descending Chicago Center
02:33PM 43.1642 -85.7892 272° West 358 412 30,100 -1,800 Descending Chicago Center
02:34PM 43.1675 -85.9158 272° West 343 395 28,300 -1,800 Descending Chicago Center
02:35PM 43.1697 -86.0383 271° West 332 382 26,500 -1,920 Descending Chicago Center
02:36PM 43.1683 -86.1817 269° West 322 371 24,400 -1,860 Descending Chicago Center
02:37PM 43.1658 -86.2978 268° West 312 359 22,700 -1,440 Descending Chicago Center
02:38PM 43.1642 -86.4203 269° West 320 368 21,500 -1,080 Descending Chicago Center
02:39PM 43.1617 -86.5367 268° West 312 359 20,500 -1,320 Descending Chicago Center
02:40PM 43.1597 -86.6531 269° West 303 349 18,900 -1,800 Descending Chicago Center
02:41PM 43.1569 -86.7839 268° West 293 337 16,900 -1,740 Descending Chicago Center
02:42PM 43.1553 -86.8889 269° West 281 323 15,400 -1,500 Descending Chicago Center
02:43PM 43.1531 -86.9900 268° West 269 310 13,900 -1,500 Descending Chicago Center
02:44PM 43.1511 -87.0867 268° West 258 297 12,400 -1,440 Descending Chicago Center
02:45PM 43.1475 -87.1814 267° West 251 289 11,000 -1,200 Descending Chicago Center
02:47PM 43.1464 -87.2753 269° West 248 285 10,000 -960 Descending Chicago Center
02:48PM 43.1428 -87.3733 267° West 242 278 9,100 -1,200 Descending Chicago Center
02:49PM 43.1472 -87.4625 274° West 236 272 7,600 -1,080 Descending Chicago Center
02:50PM 43.1528 -87.5622 274° West 225 259 7,000 -300 Descending Chicago Center
02:51PM 43.1617 -87.6375 279° West 205 236 7,100  Climbing Chicago Center
02:52PM 43.1678 -87.7092 277° West 193 222 7,000 -540 Descending Chicago Center
02:53PM 43.1731 -87.7675 277° West 162 186 6,100 -1,020 Descending Chicago Center
02:54PM 43.1625 -87.8167 254° West 139 160 5,000 -1,140 Descending Chicago Center
02:55PM 43.1350 -87.8447 217° Southwest 124 143 3,800 -1,020 Descending Chicago Center
02:56PM 43.0961 -87.8692 205° Southwest 131 151 2,900 -540 Descending Chicago Center
02:57PM 43.0558 -87.8747 186° South 140 161 2,700 -420 Descending Chicago Center
02:58PM 43.0333 -87.8833 196° South 135 155 2,200 -660 Descending KMKE
02:59PM 43.0000 -87.8833 180° South 103 119 1,600 -600 Descending KMKE
03:02PM 42.9469 -87.8971 180° South  Level Estimated